createdAt,value
2022-11-09T00:00:08.219Z,1012.29
2022-11-09T00:01:08.376Z,1012.32
2022-11-09T00:02:08.539Z,1012.29
2022-11-09T00:03:08.696Z,1012.30
2022-11-09T00:04:08.879Z,1012.32
2022-11-09T00:05:09.039Z,1012.31
2022-11-09T00:06:09.197Z,1012.31
2022-11-09T00:07:09.435Z,1012.28
2022-11-09T00:08:09.536Z,1012.28
2022-11-09T00:09:09.737Z,1012.29
2022-11-09T00:10:09.974Z,1012.30
2022-11-09T00:11:10.049Z,1012.26
2022-11-09T00:12:10.248Z,1012.30
2022-11-09T00:13:10.397Z,1012.27
2022-11-09T00:14:10.615Z,1012.26
2022-11-09T00:15:10.766Z,1012.30
2022-11-09T00:16:10.957Z,1012.29
2022-11-09T00:17:11.118Z,1012.29
2022-11-09T00:18:11.307Z,1012.29
2022-11-09T00:19:11.478Z,1012.25
2022-11-09T00:20:11.652Z,1012.26
2022-11-09T00:21:11.807Z,1012.24
2022-11-09T00:22:11.979Z,1012.23
2022-11-09T00:23:12.138Z,1012.24
2022-11-09T00:24:12.320Z,1012.22
2022-11-09T00:25:12.475Z,1012.23
2022-11-09T00:26:12.668Z,1012.18
2022-11-09T00:27:17.373Z,1012.18
2022-11-09T00:28:12.987Z,1012.17
2022-11-09T00:29:13.168Z,1012.16
2022-11-09T00:30:13.326Z,1012.14
2022-11-09T00:31:13.518Z,1012.15
2022-11-09T00:32:13.668Z,1012.13
2022-11-09T00:33:13.836Z,1012.17
2022-11-09T00:34:14.008Z,1012.21
2022-11-09T00:35:14.170Z,1012.14
2022-11-09T00:36:14.328Z,1012.15
2022-11-09T00:37:14.606Z,1012.16
2022-11-09T00:38:14.678Z,1012.15
2022-11-09T00:39:14.859Z,1012.13
2022-11-09T00:40:15.018Z,1012.15
2022-11-09T00:41:15.177Z,1012.09
2022-11-09T00:42:15.339Z,1012.10
2022-11-09T00:43:15.499Z,1012.10
2022-11-09T00:44:15.679Z,1012.08
2022-11-09T00:45:15.839Z,1012.07
2022-11-09T00:46:15.999Z,1012.06
2022-11-09T00:47:16.181Z,1012.01
2022-11-09T00:48:16.339Z,1012.04
2022-11-09T00:49:16.519Z,1012.07
2022-11-09T00:50:16.677Z,1012.07
2022-11-09T00:51:16.838Z,1012.05
2022-11-09T00:52:16.995Z,1012.04
2022-11-09T00:53:17.577Z,1012.00
2022-11-09T00:54:17.379Z,1011.99
2022-11-09T00:55:17.538Z,1012.03
2022-11-09T00:56:17.699Z,1012.02
2022-11-09T00:57:17.860Z,1012.00
2022-11-09T00:58:18.019Z,1012.00
2022-11-09T00:59:18.199Z,1012.03
2022-11-09T01:00:18.343Z,1012.03
2022-11-09T01:01:18.567Z,1012.04
2022-11-09T01:02:18.689Z,1012.08
2022-11-09T01:03:19.113Z,1012.10
2022-11-09T01:04:19.040Z,1012.04
2022-11-09T01:05:19.207Z,1012.07
2022-11-09T01:06:19.360Z,1012.04
2022-11-09T01:07:19.630Z,1012.02
2022-11-09T01:08:19.709Z,1012.03
2022-11-09T01:09:19.921Z,1012.03
2022-11-09T01:10:20.076Z,1012.02
2022-11-09T01:11:20.274Z,1012.04
2022-11-09T01:12:20.420Z,1012.02
2022-11-09T01:13:21.011Z,1012.02
2022-11-09T01:14:20.822Z,1011.99
2022-11-09T01:15:20.980Z,1012.02
2022-11-09T01:16:21.140Z,1011.94
2022-11-09T01:17:21.317Z,1011.96
2022-11-09T01:18:21.472Z,1011.94
2022-11-09T01:19:21.669Z,1011.97
2022-11-09T01:20:21.830Z,1011.95
2022-11-09T01:21:21.996Z,1011.90
2022-11-09T01:22:22.140Z,1011.92
2022-11-09T01:23:22.339Z,1011.96
2022-11-09T01:24:22.550Z,1011.96
2022-11-09T01:25:22.679Z,1011.96
2022-11-09T01:26:22.830Z,1011.94
2022-11-09T01:27:23.030Z,1011.96
2022-11-09T01:28:23.212Z,1011.96
2022-11-09T01:29:23.370Z,1011.95
2022-11-09T01:30:23.554Z,1011.89
2022-11-09T01:31:23.719Z,1011.92
2022-11-09T01:32:23.880Z,1011.93
2022-11-09T01:33:24.052Z,1011.94
2022-11-09T01:34:24.211Z,1011.91
2022-11-09T01:35:24.379Z,1011.93
2022-11-09T01:36:24.537Z,1011.92
2022-11-09T01:37:24.699Z,1011.95
2022-11-09T01:38:24.870Z,1011.95
2022-11-09T01:39:25.030Z,1011.93
2022-11-09T01:40:25.189Z,1011.94
2022-11-09T01:41:25.356Z,1011.94
2022-11-09T01:42:25.509Z,1011.97
2022-11-09T01:43:25.710Z,1012.00
2022-11-09T01:44:25.872Z,1011.98
2022-11-09T01:45:26.030Z,1011.99
2022-11-09T01:46:26.190Z,1011.96
2022-11-09T01:47:26.362Z,1011.93
2022-11-09T01:48:26.531Z,1011.94
2022-11-09T01:49:26.702Z,1011.85
2022-11-09T01:50:26.859Z,1011.78
2022-11-09T01:51:27.020Z,1011.78
2022-11-09T01:52:27.180Z,1011.71
2022-11-09T01:53:27.361Z,1011.68
2022-11-09T01:54:27.520Z,1011.70
2022-11-09T01:55:27.681Z,1011.70
2022-11-09T01:56:27.843Z,1011.68
2022-11-09T01:57:28.010Z,1011.66
2022-11-09T01:58:28.179Z,1011.61
2022-11-09T01:59:28.339Z,1011.59
2022-11-09T02:00:28.520Z,1011.63
2022-11-09T02:01:28.799Z,1011.60
2022-11-09T02:02:28.842Z,1011.63
2022-11-09T02:03:29.010Z,1011.59
2022-11-09T02:04:29.169Z,1011.60
2022-11-09T02:05:29.339Z,1011.55
2022-11-09T02:06:29.521Z,1011.58
2022-11-09T02:07:29.689Z,1011.58
2022-11-09T02:08:29.859Z,1011.57
2022-11-09T02:09:30.020Z,1011.56
2022-11-09T02:10:30.180Z,1011.58
2022-11-09T02:11:30.351Z,1011.56
2022-11-09T02:12:30.501Z,1011.55
2022-11-09T02:13:30.681Z,1011.53
2022-11-09T02:14:30.839Z,1011.60
2022-11-09T02:15:31.009Z,1011.59
2022-11-09T02:16:31.169Z,1011.57
2022-11-09T02:17:31.330Z,1011.66
2022-11-09T02:18:31.509Z,1011.71
2022-11-09T02:19:31.671Z,1011.66
2022-11-09T02:20:31.829Z,1011.68
2022-11-09T02:21:31.997Z,1011.68
2022-11-09T02:22:32.149Z,1011.63
2022-11-09T02:23:32.358Z,1011.68
2022-11-09T02:24:32.520Z,1011.68
2022-11-09T02:25:32.681Z,1011.61
2022-11-09T02:26:32.839Z,1011.63
2022-11-09T02:27:33.060Z,1011.55
2022-11-09T02:28:33.220Z,1011.52
2022-11-09T02:29:33.379Z,1011.49
2022-11-09T02:30:33.537Z,1011.45
2022-11-09T02:31:33.758Z,1011.46
2022-11-09T02:32:33.906Z,1011.42
2022-11-09T02:33:34.080Z,1011.40
2022-11-09T02:34:34.239Z,1011.38
2022-11-09T02:35:34.400Z,1011.40
2022-11-09T02:36:34.581Z,1011.46
2022-11-09T02:37:34.736Z,1011.44
2022-11-09T02:38:34.898Z,1011.45
2022-11-09T02:39:35.070Z,1011.45
2022-11-09T02:40:35.278Z,1011.50
2022-11-09T02:41:35.418Z,1011.45
2022-11-09T02:42:35.578Z,1011.45
2022-11-09T02:43:35.788Z,1011.51
2022-11-09T02:44:35.947Z,1011.47
2022-11-09T02:45:36.107Z,1011.50
2022-11-09T02:46:36.268Z,1011.52
2022-11-09T02:47:36.467Z,1011.52
2022-11-09T02:48:36.638Z,1011.48
2022-11-09T02:49:36.799Z,1011.49
2022-11-09T02:50:36.977Z,1011.50
2022-11-09T02:51:37.117Z,1011.48
2022-11-09T02:52:37.287Z,1011.47
2022-11-09T02:53:37.457Z,1011.47
2022-11-09T02:54:37.607Z,1011.47
2022-11-09T02:55:37.807Z,1011.47
2022-11-09T02:56:37.967Z,1011.46
2022-11-09T02:57:38.147Z,1011.47
2022-11-09T02:58:38.307Z,1011.44
2022-11-09T02:59:38.478Z,1011.47
2022-11-09T03:00:38.627Z,1011.42
2022-11-09T03:01:38.879Z,1011.43
2022-11-09T03:02:39.006Z,1011.44
2022-11-09T03:03:39.181Z,1011.41
2022-11-09T03:04:39.340Z,1011.37
2022-11-09T03:05:39.497Z,1011.31
2022-11-09T03:06:39.687Z,1011.32
2022-11-09T03:07:39.857Z,1011.28
2022-11-09T03:08:40.042Z,1011.24
2022-11-09T03:09:40.177Z,1011.24
2022-11-09T03:10:40.338Z,1011.25
2022-11-09T03:11:40.505Z,1011.24
2022-11-09T03:12:40.687Z,1011.23
2022-11-09T03:13:40.846Z,1011.24
2022-11-09T03:14:41.008Z,1011.25
2022-11-09T03:15:41.177Z,1011.26
2022-11-09T03:16:43.409Z,1011.21
2022-11-09T03:17:42.542Z,1011.30
2022-11-09T03:18:41.679Z,1011.29
2022-11-09T03:19:41.849Z,1011.33
2022-11-09T03:20:42.011Z,1011.29
2022-11-09T03:21:42.168Z,1011.31
2022-11-09T03:22:42.326Z,1011.33
2022-11-09T03:23:42.507Z,1011.33
2022-11-09T03:24:42.698Z,1011.30
2022-11-09T03:25:42.856Z,1011.37
2022-11-09T03:26:43.018Z,1011.39
2022-11-09T03:27:43.235Z,1011.42
2022-11-09T03:28:43.347Z,1011.43
2022-11-09T03:29:43.567Z,1011.36
2022-11-09T03:30:43.733Z,1011.42
2022-11-09T03:31:43.890Z,1011.36
2022-11-09T03:32:49.457Z,1011.40
2022-11-09T03:33:45.217Z,1011.42
2022-11-09T03:34:44.376Z,1011.47
2022-11-09T03:35:44.537Z,1011.47
2022-11-09T03:36:44.696Z,1011.47
2022-11-09T03:37:44.935Z,1011.44
2022-11-09T03:38:45.045Z,1011.43
2022-11-09T03:39:45.205Z,1011.45
2022-11-09T03:40:45.358Z,1011.53
2022-11-09T03:41:45.554Z,1011.59
2022-11-09T03:42:45.731Z,1011.58
2022-11-09T03:43:45.887Z,1011.56
2022-11-09T03:44:46.048Z,1011.67
2022-11-09T03:45:46.210Z,1011.68
2022-11-09T03:46:46.375Z,1011.71
2022-11-09T03:47:46.539Z,1011.72
2022-11-09T03:48:46.703Z,1011.69
2022-11-09T03:49:46.858Z,1011.64
2022-11-09T03:50:47.019Z,1011.67
2022-11-09T03:51:47.210Z,1011.65
2022-11-09T03:52:47.379Z,1011.67
2022-11-09T03:53:47.539Z,1011.62
2022-11-09T03:54:47.701Z,1011.62
2022-11-09T03:55:47.859Z,1011.62
2022-11-09T03:56:48.029Z,1011.66
2022-11-09T03:57:48.208Z,1011.62
2022-11-09T03:58:48.369Z,1011.59
2022-11-09T03:59:48.527Z,1011.59
2022-11-09T04:00:48.679Z,1011.54
2022-11-09T04:01:48.913Z,1011.58
2022-11-09T04:02:49.067Z,1011.53
2022-11-09T04:03:49.230Z,1011.54
2022-11-09T04:04:49.390Z,1011.48
2022-11-09T04:05:49.563Z,1011.44
2022-11-09T04:06:49.783Z,1011.42
2022-11-09T04:07:49.918Z,1011.43
2022-11-09T04:08:51.554Z,1011.41
2022-11-09T04:09:50.249Z,1011.38
2022-11-09T04:10:50.442Z,1011.43
2022-11-09T04:11:50.569Z,1011.47
2022-11-09T04:12:50.739Z,1011.47
2022-11-09T04:13:50.906Z,1011.44
2022-11-09T04:14:51.066Z,1011.46
2022-11-09T04:15:51.228Z,1011.40
2022-11-09T04:16:51.401Z,1011.39
2022-11-09T04:17:51.591Z,1011.41
2022-11-09T04:18:51.779Z,1011.45
2022-11-09T04:19:51.946Z,1011.40
2022-11-09T04:20:52.110Z,1011.39
2022-11-09T04:21:52.268Z,1011.48
2022-11-09T04:22:52.441Z,1011.44
2022-11-09T04:23:52.617Z,1011.46
2022-11-09T04:24:52.768Z,1011.45
2022-11-09T04:25:52.931Z,1011.50
2022-11-09T04:26:53.088Z,1011.50
2022-11-09T04:27:53.261Z,1011.51
2022-11-09T04:28:53.417Z,1011.50
2022-11-09T04:29:53.578Z,1011.51
2022-11-09T04:30:53.738Z,1011.52
2022-11-09T04:31:53.930Z,1011.54
2022-11-09T04:32:54.109Z,1011.51
2022-11-09T04:33:54.279Z,1011.53
2022-11-09T04:34:54.441Z,1011.57
2022-11-09T04:35:54.601Z,1011.57
2022-11-09T04:36:54.762Z,1011.55
2022-11-09T04:37:54.939Z,1011.53
2022-11-09T04:38:55.109Z,1011.53
2022-11-09T04:39:55.280Z,1011.52
2022-11-09T04:40:55.428Z,1011.59
2022-11-09T04:41:55.589Z,1011.54
2022-11-09T04:42:55.768Z,1011.56
2022-11-09T04:43:55.928Z,1011.54
2022-11-09T04:44:56.098Z,1011.50
2022-11-09T04:45:56.262Z,1011.43
2022-11-09T04:46:56.419Z,1011.40
2022-11-09T04:47:56.589Z,1011.41
2022-11-09T04:48:56.757Z,1011.49
2022-11-09T04:49:56.917Z,1011.53
2022-11-09T04:50:57.099Z,1011.56
2022-11-09T04:51:57.259Z,1011.54
2022-11-09T04:52:57.428Z,1011.54
2022-11-09T04:53:57.590Z,1011.60
2022-11-09T04:54:57.750Z,1011.62
2022-11-09T04:55:57.908Z,1011.64
2022-11-09T04:56:58.073Z,1011.63
2022-11-09T04:57:58.244Z,1011.63
2022-11-09T04:58:58.399Z,1011.65
2022-11-09T04:59:58.560Z,1011.67
2022-11-09T05:00:58.728Z,1011.64
2022-11-09T05:01:58.902Z,1011.69
2022-11-09T05:02:59.079Z,1011.66
2022-11-09T05:03:59.302Z,1011.62
2022-11-09T05:04:59.419Z,1011.65
2022-11-09T05:05:59.581Z,1011.64
2022-11-09T05:06:59.798Z,1011.58
2022-11-09T05:07:59.937Z,1011.58
2022-11-09T05:09:00.091Z,1011.56
2022-11-09T05:10:00.274Z,1011.55
2022-11-09T05:11:00.428Z,1011.56
2022-11-09T05:12:00.590Z,1011.56
2022-11-09T05:13:00.797Z,1011.56
2022-11-09T05:14:00.950Z,1011.57
2022-11-09T05:15:01.147Z,1011.62
2022-11-09T05:16:01.298Z,1011.65
2022-11-09T05:17:01.497Z,1011.67
2022-11-09T05:18:01.668Z,1011.63
2022-11-09T05:19:01.829Z,1011.64
2022-11-09T05:20:01.989Z,1011.70
2022-11-09T05:21:02.150Z,1011.71
2022-11-09T05:22:02.308Z,1011.75
2022-11-09T05:23:02.486Z,1011.74
2022-11-09T05:24:02.659Z,1011.77
2022-11-09T05:25:02.811Z,1011.76
2022-11-09T05:26:02.971Z,1011.78
2022-11-09T05:27:03.137Z,1011.75
2022-11-09T05:28:03.309Z,1011.77
2022-11-09T05:29:03.480Z,1011.78
2022-11-09T05:30:03.628Z,1011.74
2022-11-09T05:31:03.799Z,1011.72
2022-11-09T05:32:03.949Z,1011.73
2022-11-09T05:33:04.160Z,1011.73
2022-11-09T05:34:04.322Z,1011.71
2022-11-09T05:35:04.479Z,1011.70
2022-11-09T05:36:04.629Z,1011.66
2022-11-09T05:37:04.830Z,1011.65
2022-11-09T05:38:05.012Z,1011.61
2022-11-09T05:39:05.170Z,1011.63
2022-11-09T05:40:05.329Z,1011.65
2022-11-09T05:41:05.530Z,1011.67
2022-11-09T05:42:05.693Z,1011.72
2022-11-09T05:43:05.868Z,1011.72
2022-11-09T05:44:06.026Z,1011.70
2022-11-09T05:45:28.303Z,1011.70
2022-11-09T05:46:07.400Z,1011.68
2022-11-09T05:47:06.591Z,1011.66
2022-11-09T05:48:06.759Z,1011.68
2022-11-09T05:49:06.919Z,1011.64
2022-11-09T05:50:07.090Z,1011.59
2022-11-09T05:51:07.259Z,1011.56
2022-11-09T05:52:07.440Z,1011.67
2022-11-09T05:53:07.609Z,1011.73
2022-11-09T05:54:07.788Z,1011.68
2022-11-09T05:55:07.969Z,1011.68
2022-11-09T05:56:08.119Z,1011.66
2022-11-09T05:57:08.293Z,1011.69
2022-11-09T05:58:08.461Z,1011.68
2022-11-09T05:59:08.620Z,1011.75
2022-11-09T06:00:11.160Z,1011.75
2022-11-09T06:01:08.959Z,1011.82
2022-11-09T06:02:09.153Z,1011.79
2022-11-09T06:03:09.329Z,1011.84
2022-11-09T06:04:09.469Z,1011.87
2022-11-09T06:05:09.659Z,1011.87
2022-11-09T06:06:09.836Z,1011.82
2022-11-09T06:07:10.174Z,1011.91
2022-11-09T06:08:10.199Z,1011.95
2022-11-09T06:09:10.368Z,1011.92
2022-11-09T06:10:10.551Z,1011.95
2022-11-09T06:11:10.730Z,1011.93
2022-11-09T06:12:10.909Z,1011.92
2022-11-09T06:13:11.122Z,1011.95
2022-11-09T06:14:11.260Z,1011.93
2022-11-09T06:15:11.439Z,1011.97
2022-11-09T06:16:11.619Z,1011.95
2022-11-09T06:17:11.798Z,1011.96
2022-11-09T06:18:11.990Z,1011.97
2022-11-09T06:19:12.223Z,1011.95
2022-11-09T06:20:12.311Z,1011.99
2022-11-09T06:21:12.712Z,1011.98
2022-11-09T06:22:12.639Z,1011.98
2022-11-09T06:23:12.838Z,1011.98
2022-11-09T06:24:12.980Z,1012.00
2022-11-09T06:25:13.160Z,1011.96
2022-11-09T06:26:13.342Z,1011.97
2022-11-09T06:27:13.552Z,1011.97
2022-11-09T06:28:13.720Z,1011.97
2022-11-09T06:29:13.882Z,1011.97
2022-11-09T06:30:14.062Z,1012.00
2022-11-09T06:31:14.240Z,1011.99
2022-11-09T06:32:14.427Z,1012.03
2022-11-09T06:33:14.621Z,1012.05
2022-11-09T06:34:15.770Z,1012.08
2022-11-09T06:35:15.008Z,1012.05
2022-11-09T06:36:15.190Z,1012.09
2022-11-09T06:37:15.354Z,1012.09
2022-11-09T06:38:15.562Z,1012.09
2022-11-09T06:39:15.700Z,1012.17
2022-11-09T06:40:15.892Z,1012.17
2022-11-09T06:41:16.032Z,1012.14
2022-11-09T06:42:16.256Z,1012.18
2022-11-09T06:43:16.507Z,1012.16
2022-11-09T06:44:16.530Z,1012.18
2022-11-09T06:45:16.701Z,1012.16
2022-11-09T06:46:16.973Z,1012.22
2022-11-09T06:47:17.083Z,1012.24
2022-11-09T06:48:17.261Z,1012.23
2022-11-09T06:49:17.441Z,1012.21
2022-11-09T06:50:17.658Z,1012.27
2022-11-09T06:51:17.818Z,1012.23
2022-11-09T06:52:17.986Z,1012.23
2022-11-09T06:53:18.604Z,1012.23
2022-11-09T06:54:18.352Z,1012.20
2022-11-09T06:55:18.486Z,1012.24
2022-11-09T06:56:18.654Z,1012.20
2022-11-09T06:57:18.826Z,1012.20
2022-11-09T06:58:19.001Z,1012.23
2022-11-09T06:59:19.219Z,1012.16
2022-11-09T07:00:19.396Z,1012.16
2022-11-09T07:01:19.562Z,1012.18
2022-11-09T07:02:19.740Z,1012.14
2022-11-09T07:03:20.234Z,1012.11
2022-11-09T07:04:20.050Z,1012.08
2022-11-09T07:05:20.220Z,1012.04
2022-11-09T07:06:20.394Z,1012.04
2022-11-09T07:07:26.438Z,1012.00
2022-11-09T07:08:21.771Z,1012.04
2022-11-09T07:09:20.940Z,1012.03
2022-11-09T07:10:21.080Z,1011.98
2022-11-09T07:11:22.259Z,1011.94
2022-11-09T07:12:21.450Z,1011.98
2022-11-09T07:13:21.939Z,1011.98
2022-11-09T07:14:21.811Z,1011.87
2022-11-09T07:15:22.021Z,1011.83
2022-11-09T07:16:22.190Z,1011.77
2022-11-09T07:17:22.342Z,1011.77
2022-11-09T07:18:22.541Z,1011.66
2022-11-09T07:19:22.700Z,1011.68
2022-11-09T07:20:22.881Z,1011.60
2022-11-09T07:21:23.111Z,1011.65
2022-11-09T07:22:23.233Z,1011.63
2022-11-09T07:23:23.767Z,1011.69
2022-11-09T07:24:23.625Z,1011.83
2022-11-09T07:25:23.808Z,1011.91
2022-11-09T07:26:23.943Z,1012.01
2022-11-09T07:27:27.926Z,1012.10
2022-11-09T07:28:24.321Z,1012.18
2022-11-09T07:29:24.532Z,1012.26
2022-11-09T07:30:24.702Z,1012.28
2022-11-09T07:31:24.852Z,1012.34
2022-11-09T07:32:53.847Z,1012.37
2022-11-09T07:33:26.507Z,1012.41
2022-11-09T07:34:25.411Z,1012.43
2022-11-09T07:35:25.579Z,1012.40
2022-11-09T07:36:25.750Z,1012.37
2022-11-09T07:37:26.941Z,1012.36
2022-11-09T07:38:26.151Z,1012.36
2022-11-09T07:39:26.284Z,1012.40
2022-11-09T07:40:26.501Z,1012.37
2022-11-09T07:41:29.466Z,1012.35
2022-11-09T07:42:27.804Z,1012.36
2022-11-09T07:43:27.016Z,1012.36
2022-11-09T07:44:27.201Z,1012.34
2022-11-09T07:45:27.331Z,1012.35
2022-11-09T07:46:27.490Z,1012.30
2022-11-09T07:47:27.691Z,1012.36
2022-11-09T07:48:27.863Z,1012.34
2022-11-09T07:49:28.020Z,1012.32
2022-11-09T07:50:28.279Z,1012.32
2022-11-09T07:51:28.416Z,1012.35
2022-11-09T07:52:28.581Z,1012.38
2022-11-09T07:53:28.800Z,1012.30
2022-11-09T07:54:28.931Z,1012.37
2022-11-09T07:55:29.123Z,1012.31
2022-11-09T07:56:29.301Z,1012.32
2022-11-09T07:57:29.491Z,1012.34
2022-11-09T07:58:29.701Z,1012.37
2022-11-09T07:59:29.859Z,1012.37
2022-11-09T08:00:30.172Z,1012.46
2022-11-09T08:01:30.212Z,1012.39
2022-11-09T08:02:30.441Z,1012.40
2022-11-09T08:03:30.684Z,1012.37
2022-11-09T08:04:30.799Z,1012.34
2022-11-09T08:05:30.954Z,1012.34
2022-11-09T08:06:31.116Z,1012.35
2022-11-09T08:07:31.291Z,1012.32
2022-11-09T08:08:31.470Z,1012.39
2022-11-09T08:09:31.620Z,1012.37
2022-11-09T08:10:31.771Z,1012.42
2022-11-09T08:11:31.961Z,1012.43
2022-11-09T08:12:36.890Z,1012.46
2022-11-09T08:13:33.331Z,1012.47
2022-11-09T08:14:32.499Z,1012.47
2022-11-09T08:15:32.718Z,1012.44
2022-11-09T08:16:37.572Z,1012.43
2022-11-09T08:17:34.041Z,1012.51
2022-11-09T08:18:33.229Z,1012.46
2022-11-09T08:19:33.391Z,1012.46
2022-11-09T08:20:33.541Z,1012.37
2022-11-09T08:21:33.741Z,1012.31
2022-11-09T08:22:33.872Z,1012.36
2022-11-09T08:23:34.573Z,1012.32
2022-11-09T08:24:34.223Z,1012.34
2022-11-09T08:25:34.425Z,1012.33
2022-11-09T08:26:34.560Z,1012.30
2022-11-09T08:27:34.761Z,1012.29
2022-11-09T08:28:34.910Z,1012.21
2022-11-09T08:29:35.093Z,1012.29
2022-11-09T08:30:35.287Z,1012.22
2022-11-09T08:31:35.468Z,1012.28
2022-11-09T08:32:35.638Z,1012.27
2022-11-09T08:33:35.842Z,1012.28
2022-11-09T08:34:35.983Z,1012.35
2022-11-09T08:35:36.162Z,1012.36
2022-11-09T08:36:36.344Z,1012.37
2022-11-09T08:37:36.521Z,1012.47
2022-11-09T08:38:36.751Z,1012.52
2022-11-09T08:39:36.874Z,1012.44
2022-11-09T08:40:37.028Z,1012.46
2022-11-09T08:41:37.201Z,1012.55
2022-11-09T08:42:37.411Z,1012.47
2022-11-09T08:43:37.561Z,1012.53
2022-11-09T08:44:37.701Z,1012.49
2022-11-09T08:45:37.934Z,1012.47
2022-11-09T08:46:41.295Z,1012.41
2022-11-09T08:47:38.252Z,1012.48
2022-11-09T08:48:38.447Z,1012.49
2022-11-09T08:49:38.662Z,1012.50
2022-11-09T08:50:38.761Z,1012.45
2022-11-09T08:51:38.933Z,1012.46
2022-11-09T08:52:39.120Z,1012.51
2022-11-09T08:53:39.342Z,1012.50
2022-11-09T08:54:39.500Z,1012.48
2022-11-09T08:55:39.652Z,1012.43
2022-11-09T08:56:39.817Z,1012.43
2022-11-09T08:57:39.964Z,1012.42
2022-11-09T08:58:40.160Z,1012.52
2022-11-09T08:59:40.322Z,1012.49
2022-11-09T09:00:40.460Z,1012.49
2022-11-09T09:01:40.723Z,1012.51
2022-11-09T09:02:40.853Z,1012.55
2022-11-09T09:03:41.000Z,1012.51
2022-11-09T09:04:41.181Z,1012.45
2022-11-09T09:05:41.322Z,1012.43
2022-11-09T09:06:41.543Z,1012.39
2022-11-09T09:07:41.711Z,1012.42
2022-11-09T09:08:41.891Z,1012.47
2022-11-09T09:09:42.042Z,1012.52
2022-11-09T09:10:42.195Z,1012.57
2022-11-09T09:11:42.382Z,1012.54
2022-11-09T09:12:42.567Z,1012.54
2022-11-09T09:13:43.728Z,1012.57
2022-11-09T09:14:42.902Z,1012.65
2022-11-09T09:15:43.082Z,1012.65
2022-11-09T09:16:43.290Z,1012.69
2022-11-09T09:17:43.423Z,1012.67
2022-11-09T09:18:43.632Z,1012.76
2022-11-09T09:19:48.828Z,1012.74
2022-11-09T09:20:44.963Z,1012.65
2022-11-09T09:21:44.132Z,1012.61
2022-11-09T09:22:44.335Z,1012.65
2022-11-09T09:23:44.489Z,1012.59
2022-11-09T09:24:45.646Z,1012.60
2022-11-09T09:25:44.849Z,1012.58
2022-11-09T09:26:45.012Z,1012.53
2022-11-09T09:27:45.203Z,1012.53
2022-11-09T09:28:45.372Z,1012.46
2022-11-09T09:29:45.532Z,1012.52
2022-11-09T09:30:45.674Z,1012.56
2022-11-09T09:31:45.863Z,1012.57
2022-11-09T09:32:46.043Z,1012.65
2022-11-09T09:33:46.246Z,1012.68
2022-11-09T09:34:46.373Z,1012.65
2022-11-09T09:35:46.552Z,1012.69
2022-11-09T09:36:48.480Z,1012.70
2022-11-09T09:37:46.954Z,1012.77
2022-11-09T09:38:47.103Z,1012.73
2022-11-09T09:39:47.275Z,1012.76
2022-11-09T09:40:47.483Z,1012.76
2022-11-09T09:41:47.737Z,1012.80
2022-11-09T09:42:47.823Z,1012.83
2022-11-09T09:43:48.044Z,1012.84
2022-11-09T09:44:48.183Z,1012.92
2022-11-09T09:45:48.364Z,1012.92
2022-11-09T09:46:48.584Z,1012.98
2022-11-09T09:47:48.731Z,1012.97
2022-11-09T09:48:48.896Z,1013.04
2022-11-09T09:49:49.148Z,1013.02
2022-11-09T09:50:49.245Z,1012.96
2022-11-09T09:51:49.464Z,1012.98
2022-11-09T09:53:10.631Z,1013.05
2022-11-09T09:53:50.763Z,1013.06
2022-11-09T09:54:51.989Z,1013.01
2022-11-09T09:55:50.127Z,1013.01
2022-11-09T09:56:50.313Z,1013.02
2022-11-09T09:57:50.483Z,1013.07
2022-11-09T09:58:50.633Z,1013.00
2022-11-09T09:59:50.783Z,1012.95
2022-11-09T10:00:50.968Z,1012.99
2022-11-09T10:01:51.145Z,1012.96
2022-11-09T10:02:51.353Z,1012.98
2022-11-09T10:03:51.505Z,1013.00
2022-11-09T10:04:51.703Z,1013.03
2022-11-09T10:05:51.848Z,1012.94
2022-11-09T10:06:52.077Z,1013.00
2022-11-09T10:07:52.215Z,1013.02
2022-11-09T10:08:52.404Z,1012.98
2022-11-09T10:09:52.544Z,1013.01
2022-11-09T10:10:52.728Z,1013.02
2022-11-09T10:11:54.528Z,1012.99
2022-11-09T10:12:53.114Z,1013.01
2022-11-09T10:13:53.285Z,1012.98
2022-11-09T10:14:53.485Z,1012.99
2022-11-09T10:15:53.700Z,1012.90
2022-11-09T10:16:53.809Z,1012.92
2022-11-09T10:17:53.995Z,1012.89
2022-11-09T10:18:54.194Z,1012.92
2022-11-09T10:19:54.323Z,1012.92
2022-11-09T10:20:54.505Z,1012.87
2022-11-09T10:21:54.725Z,1012.89
2022-11-09T10:22:54.897Z,1012.87
2022-11-09T10:23:55.112Z,1012.86
2022-11-09T10:26:04.656Z,1012.85
2022-11-09T10:26:56.608Z,1012.85
2022-11-09T10:27:55.796Z,1012.89
2022-11-09T10:29:15.219Z,1012.83
2022-11-09T10:29:57.174Z,1012.82
2022-11-09T10:30:56.482Z,1012.82
2022-11-09T10:31:56.406Z,1012.87
2022-11-09T10:32:56.605Z,1012.80
2022-11-09T10:33:56.787Z,1012.83
2022-11-09T10:34:56.976Z,1012.75
2022-11-09T10:35:57.125Z,1012.73
2022-11-09T10:36:57.330Z,1012.73
2022-11-09T10:37:57.527Z,1012.74
2022-11-09T10:38:57.666Z,1012.72
2022-11-09T10:39:57.848Z,1012.67
2022-11-09T10:40:58.066Z,1012.65
2022-11-09T10:41:58.196Z,1012.71
2022-11-09T10:42:58.396Z,1012.65
2022-11-09T10:43:58.565Z,1012.60
2022-11-09T10:44:58.746Z,1012.58
2022-11-09T10:45:58.965Z,1012.64
2022-11-09T10:46:59.116Z,1012.60
2022-11-09T10:47:59.284Z,1012.53
2022-11-09T10:48:59.467Z,1012.60
2022-11-09T10:49:59.637Z,1012.57
2022-11-09T10:50:59.778Z,1012.55
2022-11-09T10:51:59.955Z,1012.57
2022-11-09T10:53:00.156Z,1012.50
2022-11-09T10:54:00.311Z,1012.54
2022-11-09T10:55:00.457Z,1012.50
2022-11-09T10:56:00.649Z,1012.45
2022-11-09T10:57:05.921Z,1012.40
2022-11-09T10:58:02.057Z,1012.44
2022-11-09T10:59:01.189Z,1012.40
2022-11-09T11:00:01.368Z,1012.46
2022-11-09T11:01:01.550Z,1012.47
2022-11-09T11:02:02.493Z,1012.54
2022-11-09T11:03:01.935Z,1012.55
2022-11-09T11:04:02.077Z,1012.52
2022-11-09T11:05:02.263Z,1012.49
2022-11-09T11:06:02.439Z,1012.45
2022-11-09T11:07:02.696Z,1012.40
2022-11-09T11:08:02.806Z,1012.43
2022-11-09T11:09:02.947Z,1012.41
2022-11-09T11:10:03.155Z,1012.43
2022-11-09T11:11:27.154Z,1012.43
2022-11-09T11:12:04.448Z,1012.44
2022-11-09T11:13:03.650Z,1012.48
2022-11-09T11:14:03.787Z,1012.42
2022-11-09T11:15:03.977Z,1012.40
2022-11-09T11:16:04.171Z,1012.46
2022-11-09T11:17:04.349Z,1012.49
2022-11-09T11:18:04.537Z,1012.42
2022-11-09T11:19:04.688Z,1012.43
2022-11-09T11:20:04.868Z,1012.38
2022-11-09T11:21:05.057Z,1012.35
2022-11-09T11:22:05.231Z,1012.32
2022-11-09T11:23:05.430Z,1012.36
2022-11-09T11:24:05.567Z,1012.37
2022-11-09T11:25:05.746Z,1012.39
2022-11-09T11:26:05.927Z,1012.32
2022-11-09T11:27:10.364Z,1012.32
2022-11-09T11:28:06.388Z,1012.27
2022-11-09T11:29:06.500Z,1012.27
2022-11-09T11:30:06.680Z,1012.27
2022-11-09T11:31:06.889Z,1012.26
2022-11-09T11:32:07.001Z,1012.22
2022-11-09T11:33:07.298Z,1012.22
2022-11-09T11:34:07.356Z,1012.17
2022-11-09T11:35:07.539Z,1012.16
2022-11-09T11:36:07.718Z,1012.15
2022-11-09T11:37:07.899Z,1012.13
2022-11-09T11:38:08.089Z,1012.14
2022-11-09T11:39:08.280Z,1012.15
2022-11-09T11:40:08.460Z,1012.17
2022-11-09T11:41:08.640Z,1012.15
2022-11-09T11:42:08.822Z,1012.18
2022-11-09T11:43:09.018Z,1012.18
2022-11-09T11:44:09.160Z,1012.18
2022-11-09T11:45:33.940Z,1012.20
2022-11-09T11:46:10.501Z,1012.15
2022-11-09T11:47:09.690Z,1012.15
2022-11-09T11:48:09.892Z,1012.15
2022-11-09T11:49:10.032Z,1012.16
2022-11-09T11:50:10.211Z,1012.16
2022-11-09T11:51:10.411Z,1012.03
2022-11-09T11:52:10.581Z,1012.04
2022-11-09T11:53:10.790Z,1012.10
2022-11-09T11:54:11.038Z,1012.12
2022-11-09T11:55:11.088Z,1012.08
2022-11-09T11:56:11.271Z,1012.04
2022-11-09T11:57:11.432Z,1012.02
2022-11-09T11:58:11.622Z,1012.11
2022-11-09T11:59:11.811Z,1012.20
2022-11-09T12:00:12.093Z,1012.20
2022-11-09T12:01:12.398Z,1012.14
2022-11-09T12:02:12.454Z,1012.17
2022-11-09T12:03:12.563Z,1012.17
2022-11-09T12:04:12.682Z,1012.13
2022-11-09T12:05:12.862Z,1012.10
2022-11-09T12:06:13.042Z,1012.08
2022-11-09T12:07:13.273Z,1012.16
2022-11-09T12:08:13.401Z,1012.17